sensor_id;sensor_type;location;lat;lon;timestamp;pressure;altitude;pressure_sealevel;temperature
76541;BMP280;65385;55.772;37.658;2023-05-23T00:00:44;100156.09;;;13.23
76541;BMP280;65385;55.772;37.658;2023-05-23T00:01:44;100150.34;;;13.21
76541;BMP280;65385;55.772;37.658;2023-05-23T00:02:45;100156.38;;;13.22
76541;BMP280;65385;55.772;37.658;2023-05-23T00:03:46;100155.88;;;13.20
76541;BMP280;65385;55.772;37.658;2023-05-23T00:04:48;100151.66;;;13.19
76541;BMP280;65385;55.772;37.658;2023-05-23T00:05:49;100153.50;;;13.18
76541;BMP280;65385;55.772;37.658;2023-05-23T00:06:50;100151.91;;;13.17
76541;BMP280;65385;55.772;37.658;2023-05-23T00:07:51;100155.34;;;13.18
76541;BMP280;65385;55.772;37.658;2023-05-23T00:08:51;100146.94;;;13.16
76541;BMP280;65385;55.772;37.658;2023-05-23T00:09:52;100156.66;;;13.15
76541;BMP280;65385;55.772;37.658;2023-05-23T00:10:52;100153.00;;;13.16
76541;BMP280;65385;55.772;37.658;2023-05-23T00:11:53;100155.88;;;13.15
76541;BMP280;65385;55.772;37.658;2023-05-23T00:12:54;100162.69;;;13.16
76541;BMP280;65385;55.772;37.658;2023-05-23T00:13:55;100161.13;;;13.15
76541;BMP280;65385;55.772;37.658;2023-05-23T00:14:56;100159.53;;;13.14
76541;BMP280;65385;55.772;37.658;2023-05-23T00:15:57;100158.75;;;13.13
76541;BMP280;65385;55.772;37.658;2023-05-23T00:16:58;100162.44;;;13.12
76541;BMP280;65385;55.772;37.658;2023-05-23T00:17:58;100164.28;;;13.12
76541;BMP280;65385;55.772;37.658;2023-05-23T00:18:59;100160.06;;;13.11
76541;BMP280;65385;55.772;37.658;2023-05-23T00:20:02;100156.41;;;13.12
76541;BMP280;65385;55.772;37.658;2023-05-23T00:21:02;100155.88;;;13.10
76541;BMP280;65385;55.772;37.658;2023-05-23T00:22:03;100162.19;;;13.09
76541;BMP280;65385;55.772;37.658;2023-05-23T00:23:04;100159.81;;;13.07
76541;BMP280;65385;55.772;37.658;2023-05-23T00:24:05;100156.66;;;13.05
76541;BMP280;65385;55.772;37.658;2023-05-23T00:25:09;100164.03;;;13.03
76541;BMP280;65385;55.772;37.658;2023-05-23T00:26:10;100163.25;;;13.03
76541;BMP280;65385;55.772;37.658;2023-05-23T00:27:14;100152.19;;;13.01
76541;BMP280;65385;55.772;37.658;2023-05-23T00:28:15;100165.84;;;12.98
76541;BMP280;65385;55.772;37.658;2023-05-23T00:29:15;100160.59;;;12.98
76541;BMP280;65385;55.772;37.658;2023-05-23T00:30:16;100152.22;;;12.96
76541;BMP280;65385;55.772;37.658;2023-05-23T00:31:18;100160.09;;;12.96
76541;BMP280;65385;55.772;37.658;2023-05-23T00:32:19;100161.94;;;12.95
76541;BMP280;65385;55.772;37.658;2023-05-23T00:33:19;100154.03;;;12.95
76541;BMP280;65385;55.772;37.658;2023-05-23T00:34:21;100163.75;;;12.95
76541;BMP280;65385;55.772;37.658;2023-05-23T00:35:22;100160.34;;;12.94
76541;BMP280;65385;55.772;37.658;2023-05-23T00:36:25;100163.75;;;12.95
76541;BMP280;65385;55.772;37.658;2023-05-23T00:37:26;100162.72;;;12.96
76541;BMP280;65385;55.772;37.658;2023-05-23T00:38:27;100157.97;;;12.93
76541;BMP280;65385;55.772;37.658;2023-05-23T00:39:28;100165.06;;;12.92
76541;BMP280;65385;55.772;37.658;2023-05-23T00:40:29;100159.00;;;12.92
76541;BMP280;65385;55.772;37.658;2023-05-23T00:41:30;100157.44;;;12.91
76541;BMP280;65385;55.772;37.658;2023-05-23T00:42:31;100149.56;;;12.91
76541;BMP280;65385;55.772;37.658;2023-05-23T00:43:32;100153.28;;;12.90
76541;BMP280;65385;55.772;37.658;2023-05-23T00:44:33;100161.63;;;12.92
76541;BMP280;65385;55.772;37.658;2023-05-23T00:45:33;100155.09;;;12.94
76541;BMP280;65385;55.772;37.658;2023-05-23T00:46:34;100154.28;;;12.94
76541;BMP280;65385;55.772;37.658;2023-05-23T00:47:35;100154.28;;;12.94
76541;BMP280;65385;55.772;37.658;2023-05-23T00:48:37;100160.59;;;12.98
76541;BMP280;65385;55.772;37.658;2023-05-23T00:49:38;100155.63;;;12.96
76541;BMP280;65385;55.772;37.658;2023-05-23T00:50:39;100154.28;;;12.94
76541;BMP280;65385;55.772;37.658;2023-05-23T00:51:40;100157.47;;;12.96
76541;BMP280;65385;55.772;37.658;2023-05-23T00:52:44;100154.28;;;12.94
76541;BMP280;65385;55.772;37.658;2023-05-23T00:53:45;100164.31;;;12.97
76541;BMP280;65385;55.772;37.658;2023-05-23T00:54:46;100159.81;;;12.97
76541;BMP280;65385;55.772;37.658;2023-05-23T00:55:47;100147.97;;;13.00
76541;BMP280;65385;55.772;37.658;2023-05-23T00:56:48;100146.41;;;12.99
76541;BMP280;65385;55.772;37.658;2023-05-23T00:57:49;100148.78;;;13.00
76541;BMP280;65385;55.772;37.658;2023-05-23T00:58:50;100151.16;;;13.02
76541;BMP280;65385;55.772;37.658;2023-05-23T00:59:50;100151.16;;;13.02
76541;BMP280;65385;55.772;37.658;2023-05-23T01:00:51;100148.53;;;13.02
76541;BMP280;65385;55.772;37.658;2023-05-23T01:01:55;100153.78;;;13.02
76541;BMP280;65385;55.772;37.658;2023-05-23T01:02:56;100147.97;;;13.00
76541;BMP280;65385;55.772;37.658;2023-05-23T01:03:57;100147.47;;;12.98
76541;BMP280;65385;55.772;37.658;2023-05-23T01:04:58;100158.25;;;12.96
76541;BMP280;65385;55.772;37.658;2023-05-23T01:05:59;100155.88;;;12.95
76541;BMP280;65385;55.772;37.658;2023-05-23T01:07:00;100140.63;;;12.92
76541;BMP280;65385;55.772;37.658;2023-05-23T01:08:01;100140.63;;;12.92
76541;BMP280;65385;55.772;37.658;2023-05-23T01:09:03;100148.81;;;12.90
76541;BMP280;65385;55.772;37.658;2023-05-23T01:10:04;100149.56;;;12.91
76541;BMP280;65385;55.772;37.658;2023-05-23T01:11:12;100155.59;;;12.91
76541;BMP280;65385;55.772;37.658;2023-05-23T01:12:28;100153.28;;;12.90
76541;BMP280;65385;55.772;37.658;2023-05-23T01:13:42;100149.06;;;12.89
76541;BMP280;65385;55.772;37.658;2023-05-23T01:15:10;100146.69;;;12.87
76541;BMP280;65385;55.772;37.658;2023-05-23T01:16:16;100139.06;;;12.86
76541;BMP280;65385;55.772;37.658;2023-05-23T01:18:37;100144.56;;;12.84
76541;BMP280;65385;55.772;37.658;2023-05-23T01:20:58;100132.75;;;12.87
76541;BMP280;65385;55.772;37.658;2023-05-23T01:22:07;100128.84;;;12.89
76541;BMP280;65385;55.772;37.658;2023-05-23T01:26:38;100140.63;;;12.92
76541;BMP280;65385;55.772;37.658;2023-05-23T01:27:56;100135.91;;;12.94
76541;BMP280;65385;55.772;37.658;2023-05-23T01:29:21;100138.31;;;12.90
76541;BMP280;65385;55.772;37.658;2023-05-23T01:30:24;100136.16;;;12.92
76541;BMP280;65385;55.772;37.658;2023-05-23T01:31:26;100138.53;;;12.94
76541;BMP280;65385;55.772;37.658;2023-05-23T01:32:31;100134.63;;;12.96
76541;BMP280;65385;55.772;37.658;2023-05-23T01:33:32;100141.94;;;12.99
76541;BMP280;65385;55.772;37.658;2023-05-23T01:34:35;100145.09;;;13.01
76541;BMP280;65385;55.772;37.658;2023-05-23T01:35:36;100140.41;;;13.03
76541;BMP280;65385;55.772;37.658;2023-05-23T01:36:41;100139.84;;;13.06
76541;BMP280;65385;55.772;37.658;2023-05-23T01:37:43;100136.97;;;13.08
76541;BMP280;65385;55.772;37.658;2023-05-23T01:38:43;100140.91;;;13.10
76541;BMP280;65385;55.772;37.658;2023-05-23T01:39:44;100145.88;;;13.12
76541;BMP280;65385;55.772;37.658;2023-05-23T01:40:45;100171.63;;;13.15
76541;BMP280;65385;55.772;37.658;2023-05-23T01:41:48;100144.56;;;13.14
76541;BMP280;65385;55.772;37.658;2023-05-23T01:42:49;100144.03;;;13.17
76541;BMP280;65385;55.772;37.658;2023-05-23T01:43:49;100147.19;;;13.19
76541;BMP280;65385;55.772;37.658;2023-05-23T01:44:50;100138.00;;;13.22
76541;BMP280;65385;55.772;37.658;2023-05-23T01:45:52;100135.63;;;13.25
76541;BMP280;65385;55.772;37.658;2023-05-23T01:46:55;100138.00;;;13.27
76541;BMP280;65385;55.772;37.658;2023-05-23T01:47:57;100140.06;;;13.30
76541;BMP280;65385;55.772;37.658;2023-05-23T01:49:00;100131.66;;;13.33
76541;BMP280;65385;55.772;37.658;2023-05-23T01:50:02;100133.25;;;13.34
76541;BMP280;65385;55.772;37.658;2023-05-23T01:51:03;100128.47;;;13.36
76541;BMP280;65385;55.772;37.658;2023-05-23T01:52:04;100120.59;;;13.36
76541;BMP280;65385;55.772;37.658;2023-05-23T01:53:09;100124.81;;;13.37
76541;BMP280;65385;55.772;37.658;2023-05-23T01:54:12;100131.91;;;13.37
76541;BMP280;65385;55.772;37.658;2023-05-23T01:55:15;100131.63;;;13.38
76541;BMP280;65385;55.772;37.658;2023-05-23T01:56:19;100129.81;;;13.39
76541;BMP280;65385;55.772;37.658;2023-05-23T01:57:21;100126.94;;;13.40
76541;BMP280;65385;55.772;37.658;2023-05-23T01:58:22;100129.31;;;13.42
76541;BMP280;65385;55.772;37.658;2023-05-23T01:59:23;100139.50;;;13.43
76541;BMP280;65385;55.772;37.658;2023-05-23T02:00:24;100134.78;;;13.45
76541;BMP280;65385;55.772;37.658;2023-05-23T02:01:25;100130.06;;;13.47
76541;BMP280;65385;55.772;37.658;2023-05-23T02:02:26;100132.13;;;13.50
76541;BMP280;65385;55.772;37.658;2023-05-23T02:03:27;100118.47;;;13.53
76541;BMP280;65385;55.772;37.658;2023-05-23T02:04:28;100127.66;;;13.56
76541;BMP280;65385;55.772;37.658;2023-05-23T02:05:29;100136.84;;;13.58
76541;BMP280;65385;55.772;37.658;2023-05-23T02:06:29;100133.69;;;13.61
76541;BMP280;65385;55.772;37.658;2023-05-23T02:07:31;100132.09;;;13.65
76541;BMP280;65385;55.772;37.658;2023-05-23T02:08:31;100126.03;;;13.70
76541;BMP280;65385;55.772;37.658;2023-05-23T02:09:32;100124.69;;;13.72
76541;BMP280;65385;55.772;37.658;2023-05-23T02:10:33;100124.16;;;13.75
76541;BMP280;65385;55.772;37.658;2023-05-23T02:11:35;100124.69;;;13.77
76541;BMP280;65385;55.772;37.658;2023-05-23T02:12:35;100118.84;;;13.80
76541;BMP280;65385;55.772;37.658;2023-05-23T02:13:37;100125.44;;;13.83
76541;BMP280;65385;55.772;37.658;2023-05-23T02:14:37;100129.41;;;13.86
76541;BMP280;65385;55.772;37.658;2023-05-23T02:15:39;100139.34;;;13.89
76541;BMP280;65385;55.772;37.658;2023-05-23T02:16:40;100139.34;;;13.89
76541;BMP280;65385;55.772;37.658;2023-05-23T02:17:41;100132.00;;;13.91
76541;BMP280;65385;55.772;37.658;2023-05-23T02:18:42;100138.25;;;13.95
76541;BMP280;65385;55.772;37.658;2023-05-23T02:19:46;100130.34;;;14.00
76541;BMP280;65385;55.772;37.658;2023-05-23T02:20:47;100131.34;;;14.09
76541;BMP280;65385;55.772;37.658;2023-05-23T02:21:48;100122.34;;;14.20
76541;BMP280;65385;55.772;37.658;2023-05-23T02:22:48;100120.41;;;14.30
76541;BMP280;65385;55.772;37.658;2023-05-23T02:23:49;100111.41;;;14.42
76541;BMP280;65385;55.772;37.658;2023-05-23T02:24:51;100119.22;;;14.52
76541;BMP280;65385;55.772;37.658;2023-05-23T02:25:52;100122.81;;;14.61
76541;BMP280;65385;55.772;37.658;2023-05-23T02:26:53;100118.28;;;14.66
76541;BMP280;65385;55.772;37.658;2023-05-23T02:27:53;100120.84;;;14.76
76541;BMP280;65385;55.772;37.658;2023-05-23T02:28:54;100113.16;;;14.85
76541;BMP280;65385;55.772;37.658;2023-05-23T02:29:54;100116.78;;;14.89
76541;BMP280;65385;55.772;37.658;2023-05-23T02:30:55;100105.19;;;14.90
76541;BMP280;65385;55.772;37.658;2023-05-23T02:31:56;100101.56;;;14.86
76541;BMP280;65385;55.772;37.658;2023-05-23T02:32:56;100097.09;;;14.86
76541;BMP280;65385;55.772;37.658;2023-05-23T02:33:58;100101.22;;;14.93
76541;BMP280;65385;55.772;37.658;2023-05-23T02:34:59;100112.22;;;15.00
76541;BMP280;65385;55.772;37.658;2023-05-23T02:35:59;100115.84;;;15.09
76541;BMP280;65385;55.772;37.658;2023-05-23T02:37:00;100119.97;;;15.15
76541;BMP280;65385;55.772;37.658;2023-05-23T02:38:00;100110.44;;;15.19
76541;BMP280;65385;55.772;37.658;2023-05-23T02:39:02;100116.94;;;15.26
76541;BMP280;65385;55.772;37.658;2023-05-23T02:40:04;100124.03;;;15.31
76541;BMP280;65385;55.772;37.658;2023-05-23T02:41:07;100114.47;;;15.35
76541;BMP280;65385;55.772;37.658;2023-05-23T02:42:08;100116.56;;;15.38
76541;BMP280;65385;55.772;37.658;2023-05-23T02:43:08;100112.81;;;15.39
76541;BMP280;65385;55.772;37.658;2023-05-23T02:44:09;100114.38;;;15.40
76541;BMP280;65385;55.772;37.658;2023-05-23T02:45:10;100113.06;;;15.42
76541;BMP280;65385;55.772;37.658;2023-05-23T02:46:11;100117.56;;;15.42
76541;BMP280;65385;55.772;37.658;2023-05-23T02:47:13;100119.41;;;15.41
76541;BMP280;65385;55.772;37.658;2023-05-23T02:48:13;100111.56;;;15.36
76541;BMP280;65385;55.772;37.658;2023-05-23T02:49:14;100116.59;;;15.33
76541;BMP280;65385;55.772;37.658;2023-05-23T02:50:15;100117.16;;;15.30
76541;BMP280;65385;55.772;37.658;2023-05-23T02:51:15;100123.50;;;15.29
76541;BMP280;65385;55.772;37.658;2023-05-23T02:52:16;100123.56;;;15.24
76541;BMP280;65385;55.772;37.658;2023-05-23T02:53:17;100125.44;;;15.18
76541;BMP280;65385;55.772;37.658;2023-05-23T02:54:18;100128.34;;;15.17
76541;BMP280;65385;55.772;37.658;2023-05-23T02:55:18;100125.25;;;15.15
76541;BMP280;65385;55.772;37.658;2023-05-23T02:56:21;100127.63;;;15.11
76541;BMP280;65385;55.772;37.658;2023-05-23T02:57:22;100119.53;;;15.08
76541;BMP280;65385;55.772;37.658;2023-05-23T02:58:23;100116.91;;;15.03
76541;BMP280;65385;55.772;37.658;2023-05-23T02:59:24;100116.72;;;14.99
76541;BMP280;65385;55.772;37.658;2023-05-23T03:00:26;100123.88;;;14.94
76541;BMP280;65385;55.772;37.658;2023-05-23T03:01:29;100122.03;;;14.89
76541;BMP280;65385;55.772;37.658;2023-05-23T03:02:30;100122.91;;;14.84
76541;BMP280;65385;55.772;37.658;2023-05-23T03:03:30;100115.56;;;14.81
76541;BMP280;65385;55.772;37.658;2023-05-23T03:04:31;100124.50;;;14.80
76541;BMP280;65385;55.772;37.658;2023-05-23T03:05:31;100120.84;;;14.76
76541;BMP280;65385;55.772;37.658;2023-05-23T03:06:32;100134.03;;;14.76
76541;BMP280;65385;55.772;37.658;2023-05-23T03:07:34;100131.38;;;14.76
76541;BMP280;65385;55.772;37.658;2023-05-23T03:08:35;100136.38;;;14.78
76541;BMP280;65385;55.772;37.658;2023-05-23T03:09:36;100132.41;;;14.80
76541;BMP280;65385;55.772;37.658;2023-05-23T03:10:37;100135.28;;;14.84
76541;BMP280;65385;55.772;37.658;2023-05-23T03:11:37;100137.66;;;14.85
76541;BMP280;65385;55.772;37.658;2023-05-23T03:12:38;100140.28;;;14.85
76541;BMP280;65385;55.772;37.658;2023-05-23T03:13:38;100134.44;;;14.88
76541;BMP280;65385;55.772;37.658;2023-05-23T03:14:39;100133.38;;;14.89
76541;BMP280;65385;55.772;37.658;2023-05-23T03:15:40;100135.75;;;14.91
76541;BMP280;65385;55.772;37.658;2023-05-23T03:16:40;100131.75;;;14.94
76541;BMP280;65385;55.772;37.658;2023-05-23T03:17:41;100130.72;;;14.95
76541;BMP280;65385;55.772;37.658;2023-05-23T03:18:42;100126.47;;;14.99
76541;BMP280;65385;55.772;37.658;2023-05-23T03:19:42;100122.72;;;15.05
76541;BMP280;65385;55.772;37.658;2023-05-23T03:20:43;100120.81;;;15.10
76541;BMP280;65385;55.772;37.658;2023-05-23T03:21:44;100116.28;;;15.16
76541;BMP280;65385;55.772;37.658;2023-05-23T03:22:44;100122.00;;;15.23
76541;BMP280;65385;55.772;37.658;2023-05-23T03:23:45;100121.44;;;15.26
76541;BMP280;65385;55.772;37.658;2023-05-23T03:24:46;100125.56;;;15.32
76541;BMP280;65385;55.772;37.658;2023-05-23T03:25:47;100113.94;;;15.38
76541;BMP280;65385;55.772;37.658;2023-05-23T03:26:47;100119.34;;;15.47
76541;BMP280;65385;55.772;37.658;2023-05-23T03:27:48;100126.94;;;15.53
76541;BMP280;65385;55.772;37.658;2023-05-23T03:28:49;100127.38;;;15.60
76541;BMP280;65385;55.772;37.658;2023-05-23T03:29:53;100127.78;;;15.67
76541;BMP280;65385;55.772;37.658;2023-05-23T03:30:53;100122.75;;;15.71
76541;BMP280;65385;55.772;37.658;2023-05-23T03:31:54;100125.00;;;15.77
76541;BMP280;65385;55.772;37.658;2023-05-23T03:32:55;100120.75;;;15.81
76541;BMP280;65385;55.772;37.658;2023-05-23T03:33:55;100117.78;;;15.88
76541;BMP280;65385;55.772;37.658;2023-05-23T03:34:56;100124.25;;;15.95
76541;BMP280;65385;55.772;37.658;2023-05-23T03:35:57;100121.25;;;16.02
76541;BMP280;65385;55.772;37.658;2023-05-23T03:36:57;100121.16;;;16.07
76541;BMP280;65385;55.772;37.658;2023-05-23T03:37:58;100117.66;;;16.12
76541;BMP280;65385;55.772;37.658;2023-05-23T03:38:58;100110.75;;;16.16
76541;BMP280;65385;55.772;37.658;2023-05-23T03:39:59;100113.81;;;16.23
76541;BMP280;65385;55.772;37.658;2023-05-23T03:41:00;100126.34;;;16.31
76541;BMP280;65385;55.772;37.658;2023-05-23T03:42:01;100118.34;;;16.36
76541;BMP280;65385;55.772;37.658;2023-05-23T03:43:05;100117.97;;;16.42
76541;BMP280;65385;55.772;37.658;2023-05-23T03:44:07;100113.38;;;16.48
76541;BMP280;65385;55.772;37.658;2023-05-23T03:45:08;100115.19;;;16.52
76541;BMP280;65385;55.772;37.658;2023-05-23T03:46:09;100117.44;;;16.59
76541;BMP280;65385;55.772;37.658;2023-05-23T03:47:10;100111.00;;;16.65
76541;BMP280;65385;55.772;37.658;2023-05-23T03:48:13;100113.75;;;16.74
76541;BMP280;65385;55.772;37.658;2023-05-23T03:49:15;100111.22;;;16.82
76541;BMP280;65385;55.772;37.658;2023-05-23T03:50:16;100111.91;;;16.88
76541;BMP280;65385;55.772;37.658;2023-05-23T03:51:16;100108.09;;;16.94
76541;BMP280;65385;55.772;37.658;2023-05-23T03:52:17;100121.19;;;16.99
76541;BMP280;65385;55.772;37.658;2023-05-23T03:53:18;100113.00;;;17.00
76541;BMP280;65385;55.772;37.658;2023-05-23T03:54:19;100102.63;;;17.04
76541;BMP280;65385;55.772;37.658;2023-05-23T03:55:20;100102.81;;;17.07
76541;BMP280;65385;55.772;37.658;2023-05-23T03:56:22;100099.09;;;17.08
76541;BMP280;65385;55.772;37.658;2023-05-23T03:57:22;100096.94;;;17.11
76541;BMP280;65385;55.772;37.658;2023-05-23T03:58:24;100101.44;;;17.10
76541;BMP280;65385;55.772;37.658;2023-05-23T03:59:29;100097.72;;;17.11
76541;BMP280;65385;55.772;37.658;2023-05-23T04:00:30;100103.03;;;17.11
76541;BMP280;65385;55.772;37.658;2023-05-23T04:01:32;100102.72;;;17.13
76541;BMP280;65385;55.772;37.658;2023-05-23T04:02:33;100101.63;;;17.14
76541;BMP280;65385;55.772;37.658;2023-05-23T04:03:34;100103.03;;;17.11
76541;BMP280;65385;55.772;37.658;2023-05-23T04:04:37;100108.31;;;17.11
76541;BMP280;65385;55.772;37.658;2023-05-23T04:05:39;100098.28;;;17.08
76541;BMP280;65385;55.772;37.658;2023-05-23T04:06:40;100100.19;;;17.07
76541;BMP280;65385;55.772;37.658;2023-05-23T04:07:40;100102.63;;;17.04
76541;BMP280;65385;55.772;37.658;2023-05-23T04:08:42;100102.13;;;17.02
76541;BMP280;65385;55.772;37.658;2023-05-23T04:09:43;100111.13;;;17.01
76541;BMP280;65385;55.772;37.658;2023-05-23T04:10:45;100108.78;;;16.99
76541;BMP280;65385;55.772;37.658;2023-05-23T04:11:45;100110.44;;;16.95
76541;BMP280;65385;55.772;37.658;2023-05-23T04:12:46;100116.91;;;16.89
76541;BMP280;65385;55.772;37.658;2023-05-23T04:13:49;100119.56;;;16.89
76541;BMP280;65385;55.772;37.658;2023-05-23T04:14:51;100117.50;;;16.86
76541;BMP280;65385;55.772;37.658;2023-05-23T04:15:52;100115.13;;;16.85
76541;BMP280;65385;55.772;37.658;2023-05-23T04:16:55;100121.78;;;16.82
76541;BMP280;65385;55.772;37.658;2023-05-23T04:17:56;100117.28;;;16.83
76541;BMP280;65385;55.772;37.658;2023-05-23T04:18:58;100108.28;;;16.84
76541;BMP280;65385;55.772;37.658;2023-05-23T04:20:00;100105.34;;;16.85
76541;BMP280;65385;55.772;37.658;2023-05-23T04:21:00;100108.19;;;16.89
76541;BMP280;65385;55.772;37.658;2023-05-23T04:22:02;100109.16;;;16.93
76541;BMP280;65385;55.772;37.658;2023-05-23T04:23:03;100102.69;;;16.99
76541;BMP280;65385;55.772;37.658;2023-05-23T04:24:05;100100.25;;;17.02
76541;BMP280;65385;55.772;37.658;2023-05-23T04:25:08;100107.00;;;17.08
76541;BMP280;65385;55.772;37.658;2023-05-23T04:26:13;100098.41;;;17.17
76541;BMP280;65385;55.772;37.658;2023-05-23T04:27:22;100100.94;;;17.22
76541;BMP280;65385;55.772;37.658;2023-05-23T04:28:26;100100.88;;;17.27
76541;BMP280;65385;55.772;37.658;2023-05-23T04:29:27;100103.88;;;17.34
76541;BMP280;65385;55.772;37.658;2023-05-23T04:30:31;100109.06;;;17.39
76541;BMP280;65385;55.772;37.658;2023-05-23T04:31:32;100098.34;;;17.44
76541;BMP280;65385;55.772;37.658;2023-05-23T04:32:35;100099.06;;;17.49
76541;BMP280;65385;55.772;37.658;2023-05-23T04:33:36;100098.94;;;17.54
76541;BMP280;65385;55.772;37.658;2023-05-23T04:34:37;100094.31;;;17.60
76541;BMP280;65385;55.772;37.658;2023-05-23T04:35:40;100099.50;;;17.65
76541;BMP280;65385;55.772;37.658;2023-05-23T04:36:44;100099.84;;;17.72
76541;BMP280;65385;55.772;37.658;2023-05-23T04:37:45;100094.47;;;17.77
76541;BMP280;65385;55.772;37.658;2023-05-23T04:38:47;100092.97;;;17.85
76541;BMP280;65385;55.772;37.658;2023-05-23T04:39:47;100093.66;;;17.90
76541;BMP280;65385;55.772;37.658;2023-05-23T04:40:58;100098.63;;;17.92
76541;BMP280;65385;55.772;37.658;2023-05-23T04:42:01;100096.63;;;17.97
76541;BMP280;65385;55.772;37.658;2023-05-23T04:43:28;100091.88;;;18.08
76541;BMP280;65385;55.772;37.658;2023-05-23T04:44:34;100098.66;;;18.14
76541;BMP280;65385;55.772;37.658;2023-05-23T04:45:47;100110.66;;;18.20
76541;BMP280;65385;55.772;37.658;2023-05-23T04:47:04;100109.75;;;18.24
76541;BMP280;65385;55.772;37.658;2023-05-23T04:48:25;100106.19;;;18.29
76541;BMP280;65385;55.772;37.658;2023-05-23T04:49:27;100104.81;;;18.32
76541;BMP280;65385;55.772;37.658;2023-05-23T04:50:28;100100.50;;;18.36
76541;BMP280;65385;55.772;37.658;2023-05-23T04:51:32;100098.50;;;18.41
76541;BMP280;65385;55.772;37.658;2023-05-23T04:52:43;100098.03;;;18.48
76541;BMP280;65385;55.772;37.658;2023-05-23T04:53:43;100089.94;;;18.53
76541;BMP280;65385;55.772;37.658;2023-05-23T04:54:45;100099.03;;;18.60
76541;BMP280;65385;55.772;37.658;2023-05-23T04:55:48;100099.69;;;18.66
76541;BMP280;65385;55.772;37.658;2023-05-23T04:56:51;100092.19;;;18.68
76541;BMP280;65385;55.772;37.658;2023-05-23T04:57:53;100095.34;;;18.70
76541;BMP280;65385;55.772;37.658;2023-05-23T04:58:54;100105.63;;;18.71
76541;BMP280;65385;55.772;37.658;2023-05-23T04:59:55;100100.81;;;18.73
76541;BMP280;65385;55.772;37.658;2023-05-23T05:00:56;100100.03;;;18.73
76541;BMP280;65385;55.772;37.658;2023-05-23T05:01:58;100106.09;;;18.73
76541;BMP280;65385;55.772;37.658;2023-05-23T05:02:58;100112.81;;;18.71
76541;BMP280;65385;55.772;37.658;2023-05-23T05:04:02;100122.44;;;18.67
76541;BMP280;65385;55.772;37.658;2023-05-23T05:05:03;100121.22;;;18.64
76541;BMP280;65385;55.772;37.658;2023-05-23T05:06:05;100120.53;;;18.59
76541;BMP280;65385;55.772;37.658;2023-05-23T05:07:06;100113.81;;;18.53
76541;BMP280;65385;55.772;37.658;2023-05-23T05:08:07;100119.22;;;18.48
76541;BMP280;65385;55.772;37.658;2023-05-23T05:09:09;100131.88;;;18.42
76541;BMP280;65385;55.772;37.658;2023-05-23T05:10:10;100153.94;;;18.38
76541;BMP280;65385;55.772;37.658;2023-05-23T05:11:16;100146.25;;;18.28
76541;BMP280;65385;55.772;37.658;2023-05-23T05:12:17;100133.72;;;18.19
76541;BMP280;65385;55.772;37.658;2023-05-23T05:13:17;100134.16;;;18.13
76541;BMP280;65385;55.772;37.658;2023-05-23T05:14:22;100161.72;;;18.12
76541;BMP280;65385;55.772;37.658;2023-05-23T05:15:22;100162.63;;;18.07
76541;BMP280;65385;55.772;37.658;2023-05-23T05:16:27;100148.88;;;18.05
76541;BMP280;65385;55.772;37.658;2023-05-23T05:17:28;100129.88;;;18.03
76541;BMP280;65385;55.772;37.658;2023-05-23T05:18:38;100140.47;;;18.03
76541;BMP280;65385;55.772;37.658;2023-05-23T05:19:38;100145.75;;;18.03
76541;BMP280;65385;55.772;37.658;2023-05-23T05:20:40;100139.06;;;18.06
76541;BMP280;65385;55.772;37.658;2023-05-23T05:21:40;100147.03;;;18.06
76541;BMP280;65385;55.772;37.658;2023-05-23T05:22:41;100148.28;;;18.08
76541;BMP280;65385;55.772;37.658;2023-05-23T05:23:45;100138.66;;;18.12
76541;BMP280;65385;55.772;37.658;2023-05-23T05:24:47;100145.53;;;18.13
76541;BMP280;65385;55.772;37.658;2023-05-23T05:25:48;100144.63;;;18.18
76541;BMP280;65385;55.772;37.658;2023-05-23T05:26:49;100149.13;;;18.17
76541;BMP280;65385;55.772;37.658;2023-05-23T05:27:49;100138.25;;;18.19
76541;BMP280;65385;55.772;37.658;2023-05-23T05:28:53;100145.09;;;18.20
76541;BMP280;65385;55.772;37.658;2023-05-23T05:29:54;100133.72;;;18.19
76541;BMP280;65385;55.772;37.658;2023-05-23T05:30:58;100139.19;;;18.23
76541;BMP280;65385;55.772;37.658;2023-05-23T05:32:04;100135.00;;;18.22
76541;BMP280;65385;55.772;37.658;2023-05-23T05:33:08;100136.06;;;18.21
76541;BMP280;65385;55.772;37.658;2023-05-23T05:34:10;100130.78;;;18.21
76541;BMP280;65385;55.772;37.658;2023-05-23T05:35:11;100141.84;;;18.23
76541;BMP280;65385;55.772;37.658;2023-05-23T05:36:14;100137.66;;;18.22
76541;BMP280;65385;55.772;37.658;2023-05-23T05:37:15;100129.19;;;18.20
76541;BMP280;65385;55.772;37.658;2023-05-23T05:38:17;100134.50;;;18.20
76541;BMP280;65385;55.772;37.658;2023-05-23T05:39:17;100125.28;;;18.17
76541;BMP280;65385;55.772;37.658;2023-05-23T05:40:18;100127.16;;;18.17
76541;BMP280;65385;55.772;37.658;2023-05-23T05:41:20;100126.69;;;18.15
76541;BMP280;65385;55.772;37.658;2023-05-23T05:42:24;100127.44;;;18.15
76541;BMP280;65385;55.772;37.658;2023-05-23T05:43:25;100128.22;;;18.16
76541;BMP280;65385;55.772;37.658;2023-05-23T05:44:26;100124.78;;;18.15
76541;BMP280;65385;55.772;37.658;2023-05-23T05:45:26;100113.63;;;18.18
76541;BMP280;65385;55.772;37.658;2023-05-23T05:46:27;100135.00;;;18.22
76541;BMP280;65385;55.772;37.658;2023-05-23T05:47:28;100123.31;;;18.23
76541;BMP280;65385;55.772;37.658;2023-05-23T05:48:29;100125.63;;;18.24
76541;BMP280;65385;55.772;37.658;2023-05-23T05:49:34;100121.63;;;18.27
76541;BMP280;65385;55.772;37.658;2023-05-23T05:50:35;100120.84;;;18.27
76541;BMP280;65385;55.772;37.658;2023-05-23T05:51:36;100119.44;;;18.29
76541;BMP280;65385;55.772;37.658;2023-05-23T05:52:37;100118.06;;;18.32
76541;BMP280;65385;55.772;37.658;2023-05-23T05:53:39;100116.38;;;18.36